sensor_id;sensor_type;location;lat;lon;timestamp;P1;durP1;ratioP1;P2;durP2;ratioP2
14923;SDS011;7554;43.600;1.480;2023-03-16T00:00:50;4.97;;;1.63;;
14923;SDS011;7554;43.600;1.480;2023-03-16T00:03:18;2.97;;;1.80;;
14923;SDS011;7554;43.600;1.480;2023-03-16T00:05:47;2.90;;;1.50;;
14923;SDS011;7554;43.600;1.480;2023-03-16T00:08:16;2.30;;;1.63;;
14923;SDS011;7554;43.600;1.480;2023-03-16T00:10:44;3.50;;;1.50;;
14923;SDS011;7554;43.600;1.480;2023-03-16T00:13:12;2.90;;;1.67;;
14923;SDS011;7554;43.600;1.480;2023-03-16T00:15:40;3.60;;;1.80;;
14923;SDS011;7554;43.600;1.480;2023-03-16T00:18:14;2.07;;;1.43;;
14923;SDS011;7554;43.600;1.480;2023-03-16T00:20:42;2.13;;;1.40;;
14923;SDS011;7554;43.600;1.480;2023-03-16T00:23:11;3.10;;;1.77;;
14923;SDS011;7554;43.600;1.480;2023-03-16T00:25:38;3.80;;;2.10;;
14923;SDS011;7554;43.600;1.480;2023-03-16T00:28:06;4.90;;;2.27;;
14923;SDS011;7554;43.600;1.480;2023-03-16T00:30:33;3.80;;;2.37;;
14923;SDS011;7554;43.600;1.480;2023-03-16T00:33:00;4.33;;;2.73;;
14923;SDS011;7554;43.600;1.480;2023-03-16T00:35:29;4.50;;;2.80;;
14923;SDS011;7554;43.600;1.480;2023-03-16T00:37:58;4.33;;;2.90;;
14923;SDS011;7554;43.600;1.480;2023-03-16T00:40:27;5.73;;;2.90;;
14923;SDS011;7554;43.600;1.480;2023-03-16T00:42:55;4.93;;;3.00;;
14923;SDS011;7554;43.600;1.480;2023-03-16T00:45:22;5.00;;;3.07;;
14923;SDS011;7554;43.600;1.480;2023-03-16T00:47:49;3.70;;;2.73;;
14923;SDS011;7554;43.600;1.480;2023-03-16T00:50:18;6.10;;;3.50;;
14923;SDS011;7554;43.600;1.480;2023-03-16T00:52:46;3.23;;;2.47;;
14923;SDS011;7554;43.600;1.480;2023-03-16T00:55:14;3.40;;;2.53;;
14923;SDS011;7554;43.600;1.480;2023-03-16T00:57:43;3.63;;;2.17;;
14923;SDS011;7554;43.600;1.480;2023-03-16T01:00:10;2.17;;;1.70;;
14923;SDS011;7554;43.600;1.480;2023-03-16T01:02:41;2.40;;;1.53;;
14923;SDS011;7554;43.600;1.480;2023-03-16T01:05:09;4.63;;;1.70;;
14923;SDS011;7554;43.600;1.480;2023-03-16T01:07:38;2.83;;;1.83;;
14923;SDS011;7554;43.600;1.480;2023-03-16T01:10:06;4.00;;;1.80;;
14923;SDS011;7554;43.600;1.480;2023-03-16T01:12:34;2.60;;;1.73;;
14923;SDS011;7554;43.600;1.480;2023-03-16T01:15:03;3.77;;;2.03;;
14923;SDS011;7554;43.600;1.480;2023-03-16T01:17:31;4.90;;;2.33;;
14923;SDS011;7554;43.600;1.480;2023-03-16T01:19:59;5.00;;;3.20;;
14923;SDS011;7554;43.600;1.480;2023-03-16T01:22:27;4.23;;;2.83;;
14923;SDS011;7554;43.600;1.480;2023-03-16T01:24:54;4.03;;;2.67;;
14923;SDS011;7554;43.600;1.480;2023-03-16T01:27:22;4.83;;;2.30;;
14923;SDS011;7554;43.600;1.480;2023-03-16T01:29:50;6.03;;;2.60;;
14923;SDS011;7554;43.600;1.480;2023-03-16T01:32:19;5.07;;;1.87;;
14923;SDS011;7554;43.600;1.480;2023-03-16T01:34:46;5.30;;;2.17;;
14923;SDS011;7554;43.600;1.480;2023-03-16T01:37:13;3.40;;;1.80;;
14923;SDS011;7554;43.600;1.480;2023-03-16T01:39:41;3.60;;;2.30;;
14923;SDS011;7554;43.600;1.480;2023-03-16T01:42:08;4.10;;;2.80;;
14923;SDS011;7554;43.600;1.480;2023-03-16T01:44:49;4.20;;;2.43;;
14923;SDS011;7554;43.600;1.480;2023-03-16T01:47:20;3.23;;;2.13;;
14923;SDS011;7554;43.600;1.480;2023-03-16T01:49:48;4.70;;;2.60;;
14923;SDS011;7554;43.600;1.480;2023-03-16T01:52:20;3.77;;;2.23;;
14923;SDS011;7554;43.600;1.480;2023-03-16T01:54:50;3.97;;;2.07;;
14923;SDS011;7554;43.600;1.480;2023-03-16T01:57:21;4.93;;;2.40;;
14923;SDS011;7554;43.600;1.480;2023-03-16T01:59:51;2.97;;;1.80;;
14923;SDS011;7554;43.600;1.480;2023-03-16T02:02:25;3.97;;;2.10;;
14923;SDS011;7554;43.600;1.480;2023-03-16T02:04:57;3.80;;;1.93;;
14923;SDS011;7554;43.600;1.480;2023-03-16T02:07:28;2.70;;;1.83;;
14923;SDS011;7554;43.600;1.480;2023-03-16T02:09:59;4.20;;;2.20;;
14923;SDS011;7554;43.600;1.480;2023-03-16T02:12:28;3.43;;;1.70;;
14923;SDS011;7554;43.600;1.480;2023-03-16T02:14:56;2.30;;;1.70;;
14923;SDS011;7554;43.600;1.480;2023-03-16T02:17:25;3.40;;;2.00;;
14923;SDS011;7554;43.600;1.480;2023-03-16T02:19:57;3.70;;;2.40;;
14923;SDS011;7554;43.600;1.480;2023-03-16T02:22:35;5.87;;;2.40;;
14923;SDS011;7554;43.600;1.480;2023-03-16T02:25:06;3.27;;;2.30;;
14923;SDS011;7554;43.600;1.480;2023-03-16T02:27:36;4.50;;;2.33;;
14923;SDS011;7554;43.600;1.480;2023-03-16T02:30:10;4.30;;;2.47;;
14923;SDS011;7554;43.600;1.480;2023-03-16T02:32:39;4.93;;;2.70;;
14923;SDS011;7554;43.600;1.480;2023-03-16T02:35:08;4.63;;;2.67;;
14923;SDS011;7554;43.600;1.480;2023-03-16T02:37:37;3.07;;;2.40;;
14923;SDS011;7554;43.600;1.480;2023-03-16T02:40:15;4.50;;;2.43;;
14923;SDS011;7554;43.600;1.480;2023-03-16T02:42:47;3.77;;;2.20;;
14923;SDS011;7554;43.600;1.480;2023-03-16T02:45:21;3.10;;;2.00;;
14923;SDS011;7554;43.600;1.480;2023-03-16T02:47:51;4.23;;;2.50;;
14923;SDS011;7554;43.600;1.480;2023-03-16T02:50:20;4.47;;;2.37;;
14923;SDS011;7554;43.600;1.480;2023-03-16T02:52:47;3.60;;;2.40;;
14923;SDS011;7554;43.600;1.480;2023-03-16T02:55:15;3.53;;;2.43;;
14923;SDS011;7554;43.600;1.480;2023-03-16T02:57:42;4.50;;;2.07;;
14923;SDS011;7554;43.600;1.480;2023-03-16T03:00:10;3.00;;;2.03;;
14923;SDS011;7554;43.600;1.480;2023-03-16T03:02:42;3.87;;;1.97;;
14923;SDS011;7554;43.600;1.480;2023-03-16T03:05:10;3.90;;;1.90;;
14923;SDS011;7554;43.600;1.480;2023-03-16T03:07:37;3.37;;;1.90;;
14923;SDS011;7554;43.600;1.480;2023-03-16T03:10:05;3.67;;;2.17;;
14923;SDS011;7554;43.600;1.480;2023-03-16T03:12:33;4.40;;;2.07;;
14923;SDS011;7554;43.600;1.480;2023-03-16T03:15:00;4.43;;;2.30;;
14923;SDS011;7554;43.600;1.480;2023-03-16T03:17:28;3.97;;;2.30;;
14923;SDS011;7554;43.600;1.480;2023-03-16T03:19:57;5.50;;;2.43;;
14923;SDS011;7554;43.600;1.480;2023-03-16T03:22:26;5.73;;;2.23;;
14923;SDS011;7554;43.600;1.480;2023-03-16T03:24:53;2.83;;;2.10;;
14923;SDS011;7554;43.600;1.480;2023-03-16T03:27:21;4.67;;;2.67;;
14923;SDS011;7554;43.600;1.480;2023-03-16T03:29:48;4.80;;;1.87;;
14923;SDS011;7554;43.600;1.480;2023-03-16T03:32:16;3.33;;;1.87;;
14923;SDS011;7554;43.600;1.480;2023-03-16T03:34:43;2.53;;;1.43;;
14923;SDS011;7554;43.600;1.480;2023-03-16T03:37:12;2.67;;;1.40;;
14923;SDS011;7554;43.600;1.480;2023-03-16T03:39:39;4.93;;;1.13;;
14923;SDS011;7554;43.600;1.480;2023-03-16T03:42:07;2.20;;;1.40;;
14923;SDS011;7554;43.600;1.480;2023-03-16T03:44:34;1.57;;;1.17;;
14923;SDS011;7554;43.600;1.480;2023-03-16T03:47:01;1.60;;;1.10;;
14923;SDS011;7554;43.600;1.480;2023-03-16T03:49:30;2.83;;;1.50;;
14923;SDS011;7554;43.600;1.480;2023-03-16T03:51:57;2.17;;;1.60;;
14923;SDS011;7554;43.600;1.480;2023-03-16T03:54:28;3.67;;;1.73;;
14923;SDS011;7554;43.600;1.480;2023-03-16T03:56:55;3.23;;;1.80;;
14923;SDS011;7554;43.600;1.480;2023-03-16T03:59:22;4.57;;;2.07;;
14923;SDS011;7554;43.600;1.480;2023-03-16T04:01:50;2.77;;;1.87;;
14923;SDS011;7554;43.600;1.480;2023-03-16T04:04:18;3.13;;;2.30;;
14923;SDS011;7554;43.600;1.480;2023-03-16T04:06:46;3.47;;;2.40;;
14923;SDS011;7554;43.600;1.480;2023-03-16T04:09:15;3.57;;;2.37;;
14923;SDS011;7554;43.600;1.480;2023-03-16T04:11:44;3.87;;;2.40;;
14923;SDS011;7554;43.600;1.480;2023-03-16T04:14:11;4.70;;;2.03;;
14923;SDS011;7554;43.600;1.480;2023-03-16T04:16:38;2.43;;;2.07;;
14923;SDS011;7554;43.600;1.480;2023-03-16T04:19:08;2.80;;;2.10;;
14923;SDS011;7554;43.600;1.480;2023-03-16T04:21:35;4.77;;;1.70;;
14923;SDS011;7554;43.600;1.480;2023-03-16T04:24:03;2.33;;;1.50;;
14923;SDS011;7554;43.600;1.480;2023-03-16T04:26:30;2.90;;;1.30;;
14923;SDS011;7554;43.600;1.480;2023-03-16T04:28:59;3.23;;;1.50;;
14923;SDS011;7554;43.600;1.480;2023-03-16T04:31:28;2.40;;;1.53;;
14923;SDS011;7554;43.600;1.480;2023-03-16T04:33:55;4.00;;;1.90;;
14923;SDS011;7554;43.600;1.480;2023-03-16T04:36:22;2.70;;;1.60;;
14923;SDS011;7554;43.600;1.480;2023-03-16T04:38:50;3.23;;;2.13;;
14923;SDS011;7554;43.600;1.480;2023-03-16T04:41:17;2.93;;;1.90;;
14923;SDS011;7554;43.600;1.480;2023-03-16T04:43:45;2.73;;;1.90;;
14923;SDS011;7554;43.600;1.480;2023-03-16T04:46:13;2.40;;;1.40;;
14923;SDS011;7554;43.600;1.480;2023-03-16T04:48:41;2.00;;;1.30;;
14923;SDS011;7554;43.600;1.480;2023-03-16T04:51:08;5.57;;;1.70;;
14923;SDS011;7554;43.600;1.480;2023-03-16T04:53:35;2.00;;;1.70;;
14923;SDS011;7554;43.600;1.480;2023-03-16T04:56:03;2.47;;;1.47;;
14923;SDS011;7554;43.600;1.480;2023-03-16T04:58:31;1.77;;;1.30;;
14923;SDS011;7554;43.600;1.480;2023-03-16T05:00:59;3.57;;;1.30;;
14923;SDS011;7554;43.600;1.480;2023-03-16T05:03:28;2.73;;;1.30;;
14923;SDS011;7554;43.600;1.480;2023-03-16T05:05:55;2.77;;;1.27;;
14923;SDS011;7554;43.600;1.480;2023-03-16T05:08:22;2.23;;;1.33;;
14923;SDS011;7554;43.600;1.480;2023-03-16T05:10:50;2.43;;;1.03;;
14923;SDS011;7554;43.600;1.480;2023-03-16T05:13:17;3.23;;;1.10;;
14923;SDS011;7554;43.600;1.480;2023-03-16T05:15:45;3.53;;;1.10;;
14923;SDS011;7554;43.600;1.480;2023-03-16T05:18:12;1.53;;;1.03;;
14923;SDS011;7554;43.600;1.480;2023-03-16T05:20:41;4.60;;;0.97;;
14923;SDS011;7554;43.600;1.480;2023-03-16T05:23:08;2.23;;;1.00;;
14923;SDS011;7554;43.600;1.480;2023-03-16T05:25:36;2.97;;;1.20;;
14923;SDS011;7554;43.600;1.480;2023-03-16T05:28:04;2.07;;;1.10;;
14923;SDS011;7554;43.600;1.480;2023-03-16T05:30:31;2.13;;;1.33;;
14923;SDS011;7554;43.600;1.480;2023-03-16T05:32:59;1.90;;;1.27;;
14923;SDS011;7554;43.600;1.480;2023-03-16T05:35:26;1.80;;;1.10;;
14923;SDS011;7554;43.600;1.480;2023-03-16T05:37:55;4.80;;;1.17;;
14923;SDS011;7554;43.600;1.480;2023-03-16T05:40:22;2.73;;;1.20;;
14923;SDS011;7554;43.600;1.480;2023-03-16T05:42:53;3.63;;;1.37;;
14923;SDS011;7554;43.600;1.480;2023-03-16T05:45:22;2.77;;;1.13;;
14923;SDS011;7554;43.600;1.480;2023-03-16T05:47:49;1.30;;;0.97;;
14923;SDS011;7554;43.600;1.480;2023-03-16T05:50:18;2.23;;;1.20;;
14923;SDS011;7554;43.600;1.480;2023-03-16T05:52:46;2.63;;;1.50;;
14923;SDS011;7554;43.600;1.480;2023-03-16T05:55:15;1.57;;;1.20;;
14923;SDS011;7554;43.600;1.480;2023-03-16T05:57:43;2.47;;;1.43;;
14923;SDS011;7554;43.600;1.480;2023-03-16T06:00:11;2.87;;;1.30;;
14923;SDS011;7554;43.600;1.480;2023-03-16T06:02:40;2.30;;;1.33;;
14923;SDS011;7554;43.600;1.480;2023-03-16T06:05:07;1.70;;;1.53;;
14923;SDS011;7554;43.600;1.480;2023-03-16T06:07:35;3.67;;;1.50;;
14923;SDS011;7554;43.600;1.480;2023-03-16T06:10:03;6.53;;;1.77;;
14923;SDS011;7554;43.600;1.480;2023-03-16T06:12:33;1.90;;;1.20;;
14923;SDS011;7554;43.600;1.480;2023-03-16T06:15:00;2.60;;;1.10;;
14923;SDS011;7554;43.600;1.480;2023-03-16T06:17:28;2.30;;;1.27;;
14923;SDS011;7554;43.600;1.480;2023-03-16T06:19:55;4.33;;;1.47;;
14923;SDS011;7554;43.600;1.480;2023-03-16T06:22:22;3.63;;;1.10;;
14923;SDS011;7554;43.600;1.480;2023-03-16T06:24:50;2.30;;;1.27;;
14923;SDS011;7554;43.600;1.480;2023-03-16T06:27:17;2.80;;;1.20;;
14923;SDS011;7554;43.600;1.480;2023-03-16T06:29:47;4.83;;;1.77;;
14923;SDS011;7554;43.600;1.480;2023-03-16T06:32:14;2.33;;;1.37;;
14923;SDS011;7554;43.600;1.480;2023-03-16T06:34:41;2.20;;;0.83;;
14923;SDS011;7554;43.600;1.480;2023-03-16T06:37:08;3.43;;;1.30;;
14923;SDS011;7554;43.600;1.480;2023-03-16T06:39:36;2.43;;;1.33;;
14923;SDS011;7554;43.600;1.480;2023-03-16T06:42:03;3.97;;;1.50;;
14923;SDS011;7554;43.600;1.480;2023-03-16T06:44:31;2.57;;;1.80;;
14923;SDS011;7554;43.600;1.480;2023-03-16T06:47:00;3.87;;;1.20;;
14923;SDS011;7554;43.600;1.480;2023-03-16T06:49:28;3.57;;;1.73;;
14923;SDS011;7554;43.600;1.480;2023-03-16T06:51:55;1.90;;;1.10;;
14923;SDS011;7554;43.600;1.480;2023-03-16T06:54:23;3.53;;;1.20;;
14923;SDS011;7554;43.600;1.480;2023-03-16T06:56:50;1.93;;;0.90;;
14923;SDS011;7554;43.600;1.480;2023-03-16T06:59:17;2.13;;;0.90;;
14923;SDS011;7554;43.600;1.480;2023-03-16T07:01:45;3.03;;;1.00;;
14923;SDS011;7554;43.600;1.480;2023-03-16T07:04:15;5.27;;;1.07;;
14923;SDS011;7554;43.600;1.480;2023-03-16T07:06:43;2.10;;;1.00;;
14923;SDS011;7554;43.600;1.480;2023-03-16T07:09:10;2.13;;;1.00;;
14923;SDS011;7554;43.600;1.480;2023-03-16T07:11:38;3.47;;;1.17;;
14923;SDS011;7554;43.600;1.480;2023-03-16T07:14:05;1.00;;;0.53;;
14923;SDS011;7554;43.600;1.480;2023-03-16T07:16:32;2.37;;;1.10;;
14923;SDS011;7554;43.600;1.480;2023-03-16T07:19:00;1.27;;;0.70;;
14923;SDS011;7554;43.600;1.480;2023-03-16T07:21:28;1.60;;;0.60;;
14923;SDS011;7554;43.600;1.480;2023-03-16T07:24:03;3.70;;;0.80;;
14923;SDS011;7554;43.600;1.480;2023-03-16T07:26:31;1.70;;;0.70;;
14923;SDS011;7554;43.600;1.480;2023-03-16T07:28:58;1.93;;;0.60;;
14923;SDS011;7554;43.600;1.480;2023-03-16T07:31:25;2.37;;;0.70;;
14923;SDS011;7554;43.600;1.480;2023-03-16T07:33:53;2.93;;;0.80;;
14923;SDS011;7554;43.600;1.480;2023-03-16T07:36:21;2.00;;;0.67;;
14923;SDS011;7554;43.600;1.480;2023-03-16T07:38:50;2.23;;;0.80;;
14923;SDS011;7554;43.600;1.480;2023-03-16T07:41:17;2.43;;;0.70;;
14923;SDS011;7554;43.600;1.480;2023-03-16T07:43:45;1.73;;;0.47;;
14923;SDS011;7554;43.600;1.480;2023-03-16T07:46:13;2.00;;;0.73;;
14923;SDS011;7554;43.600;1.480;2023-03-16T07:48:40;2.13;;;0.50;;
14923;SDS011;7554;43.600;1.480;2023-03-16T07:51:09;3.13;;;0.70;;
14923;SDS011;7554;43.600;1.480;2023-03-16T07:53:38;3.23;;;0.70;;
14923;SDS011;7554;43.600;1.480;2023-03-16T07:56:07;3.57;;;0.60;;
14923;SDS011;7554;43.600;1.480;2023-03-16T07:58:35;1.93;;;0.57;;
14923;SDS011;7554;43.600;1.480;2023-03-16T08:01:03;2.77;;;0.90;;
14923;SDS011;7554;43.600;1.480;2023-03-16T08:03:30;2.50;;;0.90;;
14923;SDS011;7554;43.600;1.480;2023-03-16T08:05:58;2.70;;;0.90;;
14923;SDS011;7554;43.600;1.480;2023-03-16T08:08:25;1.47;;;0.60;;
14923;SDS011;7554;43.600;1.480;2023-03-16T08:10:52;2.30;;;0.60;;
14923;SDS011;7554;43.600;1.480;2023-03-16T08:13:21;2.80;;;0.80;;
14923;SDS011;7554;43.600;1.480;2023-03-16T08:15:51;2.00;;;0.60;;
14923;SDS011;7554;43.600;1.480;2023-03-16T08:18:22;3.47;;;0.70;;
14923;SDS011;7554;43.600;1.480;2023-03-16T08:20:50;0.90;;;0.40;;
14923;SDS011;7554;43.600;1.480;2023-03-16T08:23:18;2.03;;;0.70;;
14923;SDS011;7554;43.600;1.480;2023-03-16T08:25:45;5.00;;;0.60;;
14923;SDS011;7554;43.600;1.480;2023-03-16T08:28:13;1.57;;;0.43;;
14923;SDS011;7554;43.600;1.480;2023-03-16T08:30:46;2.40;;;1.00;;
14923;SDS011;7554;43.600;1.480;2023-03-16T08:33:17;4.63;;;1.07;;
14923;SDS011;7554;43.600;1.480;2023-03-16T08:35:45;2.90;;;0.90;;
14923;SDS011;7554;43.600;1.480;2023-03-16T08:38:13;7.67;;;0.97;;
14923;SDS011;7554;43.600;1.480;2023-03-16T08:40:41;2.03;;;0.70;;
14923;SDS011;7554;43.600;1.480;2023-03-16T08:43:12;3.37;;;1.30;;
14923;SDS011;7554;43.600;1.480;2023-03-16T08:45:40;2.10;;;0.70;;
14923;SDS011;7554;43.600;1.480;2023-03-16T08:48:11;2.23;;;0.80;;
14923;SDS011;7554;43.600;1.480;2023-03-16T08:50:39;2.10;;;0.80;;
14923;SDS011;7554;43.600;1.480;2023-03-16T08:53:07;3.33;;;0.80;;
14923;SDS011;7554;43.600;1.480;2023-03-16T08:55:35;1.17;;;0.73;;
14923;SDS011;7554;43.600;1.480;2023-03-16T08:58:02;2.47;;;0.70;;
14923;SDS011;7554;43.600;1.480;2023-03-16T09:00:29;2.90;;;0.60;;
14923;SDS011;7554;43.600;1.480;2023-03-16T09:02:57;2.47;;;0.63;;
14923;SDS011;7554;43.600;1.480;2023-03-16T09:05:26;2.70;;;0.93;;
14923;SDS011;7554;43.600;1.480;2023-03-16T09:07:54;1.47;;;0.60;;
14923;SDS011;7554;43.600;1.480;2023-03-16T09:10:23;1.67;;;0.40;;
14923;SDS011;7554;43.600;1.480;2023-03-16T09:12:51;3.97;;;0.80;;
14923;SDS011;7554;43.600;1.480;2023-03-16T09:15:19;2.83;;;0.60;;
14923;SDS011;7554;43.600;1.480;2023-03-16T09:17:47;4.53;;;0.70;;
14923;SDS011;7554;43.600;1.480;2023-03-16T09:20:15;2.00;;;0.70;;
14923;SDS011;7554;43.600;1.480;2023-03-16T09:22:46;1.40;;;0.40;;
14923;SDS011;7554;43.600;1.480;2023-03-16T09:25:14;2.87;;;0.87;;
14923;SDS011;7554;43.600;1.480;2023-03-16T09:27:41;2.63;;;0.80;;
14923;SDS011;7554;43.600;1.480;2023-03-16T09:30:09;2.57;;;0.80;;
14923;SDS011;7554;43.600;1.480;2023-03-16T09:32:37;3.63;;;0.70;;
14923;SDS011;7554;43.600;1.480;2023-03-16T09:35:05;3.13;;;0.73;;
14923;SDS011;7554;43.600;1.480;2023-03-16T09:37:33;2.87;;;0.70;;
14923;SDS011;7554;43.600;1.480;2023-03-16T09:40:02;2.27;;;0.80;;
14923;SDS011;7554;43.600;1.480;2023-03-16T09:42:32;2.90;;;0.70;;
14923;SDS011;7554;43.600;1.480;2023-03-16T09:45:05;2.50;;;0.80;;
14923;SDS011;7554;43.600;1.480;2023-03-16T09:47:40;2.43;;;0.80;;
14923;SDS011;7554;43.600;1.480;2023-03-16T09:50:10;1.80;;;0.73;;
14923;SDS011;7554;43.600;1.480;2023-03-16T09:52:46;1.63;;;0.63;;
14923;SDS011;7554;43.600;1.480;2023-03-16T09:55:26;2.50;;;0.90;;
14923;SDS011;7554;43.600;1.480;2023-03-16T09:57:56;2.97;;;0.77;;
14923;SDS011;7554;43.600;1.480;2023-03-16T10:00:25;2.40;;;0.70;;
14923;SDS011;7554;43.600;1.480;2023-03-16T10:02:58;10.43;;;0.70;;
14923;SDS011;7554;43.600;1.480;2023-03-16T10:05:36;1.90;;;0.70;;
14923;SDS011;7554;43.600;1.480;2023-03-16T10:08:10;5.70;;;0.80;;
14923;SDS011;7554;43.600;1.480;2023-03-16T10:10:46;2.20;;;0.90;;
14923;SDS011;7554;43.600;1.480;2023-03-16T10:13:33;3.00;;;0.80;;
14923;SDS011;7554;43.600;1.480;2023-03-16T10:16:06;4.87;;;0.80;;
14923;SDS011;7554;43.600;1.480;2023-03-16T10:18:40;1.77;;;0.80;;
14923;SDS011;7554;43.600;1.480;2023-03-16T10:21:10;2.20;;;0.73;;
14923;SDS011;7554;43.600;1.480;2023-03-16T10:23:40;3.30;;;0.97;;
14923;SDS011;7554;43.600;1.480;2023-03-16T10:26:13;2.43;;;0.90;;
14923;SDS011;7554;43.600;1.480;2023-03-16T10:28:47;4.23;;;0.80;;
14923;SDS011;7554;43.600;1.480;2023-03-16T10:31:15;1.57;;;0.60;;
14923;SDS011;7554;43.600;1.480;2023-03-16T10:33:43;1.50;;;0.70;;
14923;SDS011;7554;43.600;1.480;2023-03-16T10:36:12;3.53;;;0.70;;
14923;SDS011;7554;43.600;1.480;2023-03-16T10:38:44;1.77;;;0.43;;
14923;SDS011;7554;43.600;1.480;2023-03-16T10:41:19;2.87;;;1.00;;
14923;SDS011;7554;43.600;1.480;2023-03-16T10:43:50;1.40;;;0.60;;
14923;SDS011;7554;43.600;1.480;2023-03-16T10:46:19;4.67;;;1.10;;
14923;SDS011;7554;43.600;1.480;2023-03-16T10:48:51;2.40;;;0.77;;
14923;SDS011;7554;43.600;1.480;2023-03-16T10:51:24;2.40;;;0.73;;
14923;SDS011;7554;43.600;1.480;2023-03-16T10:53:56;2.33;;;0.63;;
14923;SDS011;7554;43.600;1.480;2023-03-16T10:56:33;1.90;;;0.70;;
14923;SDS011;7554;43.600;1.480;2023-03-16T10:59:11;1.10;;;0.77;;
14923;SDS011;7554;43.600;1.480;2023-03-16T11:01:43;1.50;;;0.70;;
14923;SDS011;7554;43.600;1.480;2023-03-16T11:04:14;1.60;;;0.70;;
14923;SDS011;7554;43.600;1.480;2023-03-16T11:06:50;2.40;;;0.73;;
14923;SDS011;7554;43.600;1.480;2023-03-16T11:09:19;1.17;;;0.63;;
14923;SDS011;7554;43.600;1.480;2023-03-16T11:11:51;4.83;;;0.77;;
14923;SDS011;7554;43.600;1.480;2023-03-16T11:14:26;2.73;;;0.80;;
14923;SDS011;7554;43.600;1.480;2023-03-16T11:16:57;2.70;;;0.70;;
14923;SDS011;7554;43.600;1.480;2023-03-16T11:19:28;0.80;;;0.50;;
14923;SDS011;7554;43.600;1.480;2023-03-16T11:21:59;1.67;;;0.53;;
14923;SDS011;7554;43.600;1.480;2023-03-16T11:24:32;2.43;;;0.60;;
14923;SDS011;7554;43.600;1.480;2023-03-16T11:27:10;2.30;;;0.60;;
14923;SDS011;7554;43.600;1.480;2023-03-16T11:29:48;4.13;;;1.20;;
14923;SDS011;7554;43.600;1.480;2023-03-16T11:32:24;1.33;;;0.40;;
14923;SDS011;7554;43.600;1.480;2023-03-16T11:34:55;2.70;;;0.70;;
14923;SDS011;7554;43.600;1.480;2023-03-16T11:37:24;1.37;;;0.50;;
14923;SDS011;7554;43.600;1.480;2023-03-16T11:40:01;4.63;;;0.80;;
14923;SDS011;7554;43.600;1.480;2023-03-16T11:42:43;3.57;;;0.80;;
14923;SDS011;7554;43.600;1.480;2023-03-16T11:45:23;1.73;;;0.77;;
14923;SDS011;7554;43.600;1.480;2023-03-16T11:50:56;2.13;;;0.90;;
14923;SDS011;7554;43.600;1.480;2023-03-16T11:53:39;6.43;;;1.20;;
14923;SDS011;7554;43.600;1.480;2023-03-16T11:56:17;0.73;;;0.30;;
14923;SDS011;7554;43.600;1.480;2023-03-16T11:59:02;1.47;;;0.57;;
14923;SDS011;7554;43.600;1.480;2023-03-16T12:01:46;2.07;;;0.90;;
14923;SDS011;7554;43.600;1.480;2023-03-16T12:07:19;2.73;;;0.60;;
14923;SDS011;7554;43.600;1.480;2023-03-16T12:10:06;2.13;;;0.60;;
14923;SDS011;7554;43.600;1.480;2023-03-16T12:12:52;2.33;;;0.93;;
14923;SDS011;7554;43.600;1.480;2023-03-16T12:15:31;3.40;;;0.87;;
14923;SDS011;7554;43.600;1.480;2023-03-16T12:18:09;3.47;;;0.80;;
14923;SDS011;7554;43.600;1.480;2023-03-16T12:20:46;1.97;;;0.60;;
14923;SDS011;7554;43.600;1.480;2023-03-16T12:23:19;4.07;;;1.10;;
14923;SDS011;7554;43.600;1.480;2023-03-16T12:25:50;3.23;;;0.90;;
14923;SDS011;7554;43.600;1.480;2023-03-16T12:28:23;2.33;;;0.60;;
14923;SDS011;7554;43.600;1.480;2023-03-16T12:30:59;2.60;;;0.83;;
14923;SDS011;7554;43.600;1.480;2023-03-16T12:33:36;3.03;;;1.07;;
14923;SDS011;7554;43.600;1.480;2023-03-16T12:39:18;2.53;;;0.93;;
14923;SDS011;7554;43.600;1.480;2023-03-16T12:42:00;2.53;;;0.87;;
14923;SDS011;7554;43.600;1.480;2023-03-16T12:44:35;2.53;;;0.70;;
14923;SDS011;7554;43.600;1.480;2023-03-16T12:47:13;3.67;;;0.80;;
14923;SDS011;7554;43.600;1.480;2023-03-16T12:49:45;2.37;;;0.77;;
14923;SDS011;7554;43.600;1.480;2023-03-16T12:52:13;4.00;;;1.17;;
14923;SDS011;7554;43.600;1.480;2023-03-16T12:54:48;3.63;;;0.87;;
14923;SDS011;7554;43.600;1.480;2023-03-16T12:57:17;4.87;;;1.00;;
14923;SDS011;7554;43.600;1.480;2023-03-16T12:59:46;3.83;;;1.00;;
14923;SDS011;7554;43.600;1.480;2023-03-16T13:02:25;5.83;;;1.33;;
14923;SDS011;7554;43.600;1.480;2023-03-16T13:04:57;1.20;;;0.80;;
14923;SDS011;7554;43.600;1.480;2023-03-16T13:07:27;3.00;;;0.93;;
14923;SDS011;7554;43.600;1.480;2023-03-16T13:09:57;3.43;;;1.87;;
14923;SDS011;7554;43.600;1.480;2023-03-16T13:12:28;3.43;;;0.97;;
14923;SDS011;7554;43.600;1.480;2023-03-16T13:15:01;2.60;;;0.67;;
14923;SDS011;7554;43.600;1.480;2023-03-16T13:17:42;4.30;;;0.90;;
14923;SDS011;7554;43.600;1.480;2023-03-16T13:20:23;3.67;;;0.80;;
14923;SDS011;7554;43.600;1.480;2023-03-16T13:23:05;1.80;;;0.77;;
14923;SDS011;7554;43.600;1.480;2023-03-16T13:25:57;5.43;;;1.17;;
14923;SDS011;7554;43.600;1.480;2023-03-16T13:28:37;2.43;;;0.80;;
14923;SDS011;7554;43.600;1.480;2023-03-16T13:31:18;2.90;;;0.90;;
14923;SDS011;7554;43.600;1.480;2023-03-16T13:33:52;5.80;;;0.70;;
14923;SDS011;7554;43.600;1.480;2023-03-16T13:36:24;4.60;;;0.80;;
14923;SDS011;7554;43.600;1.480;2023-03-16T13:38:56;1.43;;;0.60;;
14923;SDS011;7554;43.600;1.480;2023-03-16T13:41:30;3.53;;;0.90;;
14923;SDS011;7554;43.600;1.480;2023-03-16T13:43:58;5.13;;;0.90;;
14923;SDS011;7554;43.600;1.480;2023-03-16T13:46:27;2.93;;;1.10;;
14923;SDS011;7554;43.600;1.480;2023-03-16T13:49:00;1.80;;;0.87;;
14923;SDS011;7554;43.600;1.480;2023-03-16T13:51:27;4.40;;;0.80;;
14923;SDS011;7554;43.600;1.480;2023-03-16T13:54:02;5.63;;;0.53;;
14923;SDS011;7554;43.600;1.480;2023-03-16T13:56:33;3.27;;;0.67;;
14923;SDS011;7554;43.600;1.480;2023-03-16T13:59:01;5.73;;;1.03;;
14923;SDS011;7554;43.600;1.480;2023-03-16T14:01:29;4.00;;;0.77;;
14923;SDS011;7554;43.600;1.480;2023-03-16T14:03:58;1.60;;;0.50;;
14923;SDS011;7554;43.600;1.480;2023-03-16T14:06:32;3.67;;;0.60;;
14923;SDS011;7554;43.600;1.480;2023-03-16T14:09:01;3.20;;;0.80;;
14923;SDS011;7554;43.600;1.480;2023-03-16T14:11:32;2.47;;;0.90;;
14923;SDS011;7554;43.600;1.480;2023-03-16T14:13:59;2.00;;;0.77;;
14923;SDS011;7554;43.600;1.480;2023-03-16T14:16:38;3.90;;;1.10;;
14923;SDS011;7554;43.600;1.480;2023-03-16T14:19:11;2.20;;;0.73;;
14923;SDS011;7554;43.600;1.480;2023-03-16T14:21:43;1.97;;;0.90;;
14923;SDS011;7554;43.600;1.480;2023-03-16T14:24:15;4.57;;;1.00;;
14923;SDS011;7554;43.600;1.480;2023-03-16T14:26:52;5.50;;;1.70;;
14923;SDS011;7554;43.600;1.480;2023-03-16T14:29:20;2.30;;;0.87;;
14923;SDS011;7554;43.600;1.480;2023-03-16T14:31:51;2.27;;;0.77;;
14923;SDS011;7554;43.600;1.480;2023-03-16T14:34:21;5.43;;;1.23;;
14923;SDS011;7554;43.600;1.480;2023-03-16T14:37:03;2.93;;;0.83;;
14923;SDS011;7554;43.600;1.480;2023-03-16T14:39:31;6.20;;;1.03;;
14923;SDS011;7554;43.600;1.480;2023-03-16T14:42:01;4.73;;;0.90;;
14923;SDS011;7554;43.600;1.480;2023-03-16T14:44:30;1.47;;;0.60;;
14923;SDS011;7554;43.600;1.480;2023-03-16T14:47:01;3.57;;;0.60;;
14923;SDS011;7554;43.600;1.480;2023-03-16T14:49:32;1.57;;;0.53;;
14923;SDS011;7554;43.600;1.480;2023-03-16T14:52:01;4.67;;;1.03;;
14923;SDS011;7554;43.600;1.480;2023-03-16T14:54:30;1.67;;;0.60;;
14923;SDS011;7554;43.600;1.480;2023-03-16T14:56:58;6.27;;;1.00;;
14923;SDS011;7554;43.600;1.480;2023-03-16T14:59:27;4.93;;;1.40;;
14923;SDS011;7554;43.600;1.480;2023-03-16T15:01:54;5.20;;;1.07;;
14923;SDS011;7554;43.600;1.480;2023-03-16T15:04:24;4.47;;;1.20;;
14923;SDS011;7554;43.600;1.480;2023-03-16T15:06:58;3.13;;;0.93;;
14923;SDS011;7554;43.600;1.480;2023-03-16T15:09:28;2.47;;;0.80;;
14923;SDS011;7554;43.600;1.480;2023-03-16T15:11:59;3.20;;;0.90;;
14923;SDS011;7554;43.600;1.480;2023-03-16T15:14:26;16.87;;;1.33;;
14923;SDS011;7554;43.600;1.480;2023-03-16T15:17:08;3.93;;;1.10;;
14923;SDS011;7554;43.600;1.480;2023-03-16T15:19:35;2.07;;;1.10;;
14923;SDS011;7554;43.600;1.480;2023-03-16T15:22:04;2.80;;;1.20;;
14923;SDS011;7554;43.600;1.480;2023-03-16T15:24:34;4.43;;;1.40;;
14923;SDS011;7554;43.600;1.480;2023-03-16T15:27:01;4.40;;;1.00;;